KGCK/GCK METAR and TAF weather

Enter ICAO airport designator
Station Type Date Time Source
KGCK METAR 2022/12/05 14:24 UTC NOAA

KGCK 051424Z 29008KT 10SM CLR 00/M07 A2974 RMK AO2 WSHFT 1404 T00001072


Station Type Date Time Source
KGCK Decoded METAR 2022/12/05 14:24 UTC NOAA

GARDEN CITY REGIONAL AIRPORT, KS, United States (KGCK) 37-55N 100-43W 877M
Dec 05, 2022 - 09:24 AM EST / 2022.12.05 1424 UTC
Wind: from the WNW (290 degrees) at 9 MPH (8 KT):0
Visibility: 10 mile(s):0
Sky conditions: clear
Temperature: 32.0 F (0.0 C)
Windchill: 24 F (-4 C):1
Dew Point: 19.0 F (-7.2 C)
Relative Humidity: 58%
Pressure (altimeter): 29.74 in. Hg (1007 hPa)
ob: KGCK 051424Z 29008KT 10SM CLR 00/M07 A2974 RMK AO2 WSHFT 1404 T00001072
cycle: 14

Station Type Date Time Source
KGCK TAF 2022/12/05 12:22 UTC NOAA

TAF KGCK 051120Z 0512/0612 29008KT P6SM FEW250
FM060200 06012KT P6SM BKN250

Example: see airport list